Time;durP1;ratioP1;P1;durP2;ratioP2;P2;SDS_P1;SDS_P2;PMS_P1;PMS_P2;Temp;Humidity;BMP_temperature;BMP_pressure;BME280_temperature;BME280_humidity;BME280_pressure;Samples;Min_cycle;Max_cycle;Signal;HPM_P1;HPM_P2
2020/12/10 00:01:04;;;;;;;13.90;6.70;;;;;;;;;;5052573;28;20021;-79
2020/12/10 00:03:29;;;;;;;17.97;6.77;;;;;;;;;;5070430;28;20472;-79
2020/12/10 00:05:55;;;;;;;12.07;6.13;;;;;;;;;;5060851;28;20128;-79
2020/12/10 00:08:20;;;;;;;15.67;6.57;;;;;;;;;;5058197;28;20450;-79
2020/12/10 00:10:45;;;;;;;12.60;6.03;;;;;;;;;;5060430;28;20108;-80
2020/12/10 00:13:10;;;;;;;14.25;7.35;;;;;;;;;;5054420;28;20522;-80
2020/12/10 00:15:36;;;;;;;14.50;6.87;;;;;;;;;;5062358;28;20108;-79
2020/12/10 00:18:01;;;;;;;14.33;6.83;;;;;;;;;;5060832;28;20055;-79
2020/12/10 00:20:26;;;;;;;15.20;6.60;;;;;;;;;;5061104;28;20029;-79
2020/12/10 00:22:52;;;;;;;13.37;6.73;;;;;;;;;;5056172;28;20025;-79
2020/12/10 00:25:17;;;;;;;15.67;7.03;;;;;;;;;;5064064;28;20059;-79
2020/12/10 00:27:42;;;;;;;14.97;6.63;;;;;;;;;;5059825;28;20081;-79
2020/12/10 00:30:11;;;;;;;16.37;7.13;;;;;;;;;;5065116;28;20395;-79
2020/12/10 00:32:36;;;;;;;14.80;6.50;;;;;;;;;;5063495;28;20028;-79
2020/12/10 00:35:03;;;;;;;15.80;7.32;;;;;;;;;;5086135;28;20021;-79
2020/12/10 00:37:29;;;;;;;22.07;7.47;;;;;;;;;;5093891;28;20527;-79
2020/12/10 00:39:54;;;;;;;15.03;7.10;;;;;;;;;;5062223;28;20112;-79
2020/12/10 00:42:20;;;;;;;16.60;7.10;;;;;;;;;;5059055;28;20028;-80
2020/12/10 00:44:45;;;;;;;15.30;7.13;;;;;;;;;;5062842;28;20115;-79
2020/12/10 00:47:10;;;;;;;13.80;6.50;;;;;;;;;;5059861;28;20025;-79
2020/12/10 00:49:36;;;;;;;17.07;7.13;;;;;;;;;;5055362;28;20021;-80
2020/12/10 00:52:01;;;;;;;13.67;6.70;;;;;;;;;;5095166;28;20028;-79
2020/12/10 00:54:26;;;;;;;14.33;6.70;;;;;;;;;;5059011;28;20017;-79
2020/12/10 00:56:51;;;;;;;13.25;6.63;;;;;;;;;;5064180;28;20074;-79
2020/12/10 00:59:17;;;;;;;15.95;6.97;;;;;;;;;;5064138;28;20498;-79
2020/12/10 01:01:43;;;;;;;13.20;6.38;;;;;;;;;;5095940;28;20488;-79
2020/12/10 01:04:09;;;;;;;15.02;6.60;;;;;;;;;;5065844;28;20108;-79
2020/12/10 01:06:34;;;;;;;11.15;5.65;;;;;;;;;;5062875;28;20116;-79
2020/12/10 01:08:59;;;;;;;13.63;6.72;;;;;;;;;;5071550;28;20020;-80
2020/12/10 01:11:27;;;;;;;11.63;6.38;;;;;;;;;;5062463;28;20096;-80
2020/12/10 01:13:53;;;;;;;16.85;7.22;;;;;;;;;;5065856;28;20046;-79
2020/12/10 01:16:19;;;;;;;12.60;6.80;;;;;;;;;;5055540;28;20040;-79
2020/12/10 01:18:44;;;;;;;12.97;6.80;;;;;;;;;;5070720;28;20024;-79
2020/12/10 01:21:09;;;;;;;17.57;7.13;;;;;;;;;;5073963;28;20028;-79
2020/12/10 01:23:35;;;;;;;14.83;7.53;;;;;;;;;;5063194;28;20449;-79
2020/12/10 01:26:01;;;;;;;17.27;7.70;;;;;;;;;;5063213;28;20512;-79
2020/12/10 01:28:26;;;;;;;18.00;7.80;;;;;;;;;;5061344;28;20056;-79
2020/12/10 01:30:51;;;;;;;15.97;7.47;;;;;;;;;;5064702;28;20095;-79
2020/12/10 01:33:17;;;;;;;15.23;7.03;;;;;;;;;;5059894;28;20453;-79
2020/12/10 01:35:42;;;;;;;16.30;7.30;;;;;;;;;;5062221;28;20017;-79
2020/12/10 01:38:07;;;;;;;15.27;6.67;;;;;;;;;;5067076;28;20036;-79
2020/12/10 01:40:32;;;;;;;16.53;7.07;;;;;;;;;;5067607;28;20104;-79
2020/12/10 01:42:57;;;;;;;16.83;7.00;;;;;;;;;;5058248;28;20021;-79
2020/12/10 01:45:23;;;;;;;16.20;7.93;;;;;;;;;;5068930;28;20388;-79
2020/12/10 01:47:49;;;;;;;16.47;7.20;;;;;;;;;;5067838;28;20028;-79
2020/12/10 01:50:14;;;;;;;14.50;6.80;;;;;;;;;;5058689;28;20040;-79
2020/12/10 01:52:39;;;;;;;14.33;6.00;;;;;;;;;;5062843;28;20108;-79
2020/12/10 01:55:04;;;;;;;16.43;7.10;;;;;;;;;;5058024;28;20021;-79
2020/12/10 01:57:30;;;;;;;14.83;7.17;;;;;;;;;;5061119;28;20460;-79
2020/12/10 01:59:55;;;;;;;17.47;7.47;;;;;;;;;;5058050;28;20033;-79
2020/12/10 02:02:20;;;;;;;16.33;7.20;;;;;;;;;;5060311;28;20377;-79
2020/12/10 02:04:45;;;;;;;16.73;6.60;;;;;;;;;;5061013;28;20035;-79
2020/12/10 02:07:11;;;;;;;14.13;6.70;;;;;;;;;;5062323;28;20434;-79
2020/12/10 02:09:36;;;;;;;14.50;6.90;;;;;;;;;;5061864;28;20021;-79
2020/12/10 02:12:01;;;;;;;13.93;7.20;;;;;;;;;;5058554;28;20090;-79
2020/12/10 02:14:37;;;;;;;12.77;5.67;;;;;;;;;;5061287;28;20021;-79
2020/12/10 02:17:03;;;;;;;13.83;6.73;;;;;;;;;;5061887;28;20040;-79
2020/12/10 02:19:29;;;;;;;14.17;6.40;;;;;;;;;;5061649;28;20020;-79
2020/12/10 02:21:54;;;;;;;10.23;4.57;;;;;;;;;;5062641;28;20032;-79
2020/12/10 02:24:19;;;;;;;11.10;5.68;;;;;;;;;;5067787;28;20012;-79
2020/12/10 02:26:45;;;;;;;11.55;4.43;;;;;;;;;;5062068;28;20025;-79
2020/12/10 02:29:10;;;;;;;16.60;6.82;;;;;;;;;;5062533;28;20036;-79
2020/12/10 02:31:36;;;;;;;15.07;6.60;;;;;;;;;;5062282;28;20074;-80
2020/12/10 02:34:02;;;;;;;12.87;5.77;;;;;;;;;;5058232;28;20092;-80
2020/12/10 02:36:27;;;;;;;16.27;6.97;;;;;;;;;;5061710;28;20100;-79
2020/12/10 02:38:53;;;;;;;13.60;6.33;;;;;;;;;;5060969;28;20112;-79
2020/12/10 02:41:18;;;;;;;12.30;5.70;;;;;;;;;;5058906;28;20075;-79
2020/12/10 02:43:43;;;;;;;15.00;6.27;;;;;;;;;;5065789;28;20017;-79
2020/12/10 02:46:08;;;;;;;11.90;5.57;;;;;;;;;;5060773;28;20136;-79
2020/12/10 02:48:34;;;;;;;11.73;5.85;;;;;;;;;;5060612;28;20055;-80
2020/12/10 02:51:01;;;;;;;13.07;5.80;;;;;;;;;;5063236;28;20031;-80
2020/12/10 02:53:27;;;;;;;13.38;5.95;;;;;;;;;;5062860;28;20520;-79
2020/12/10 02:55:52;;;;;;;12.50;5.78;;;;;;;;;;5062105;28;20104;-80
2020/12/10 02:58:17;;;;;;;11.57;5.35;;;;;;;;;;5062276;28;20021;-79
2020/12/10 03:00:42;;;;;;;12.73;5.90;;;;;;;;;;5061379;28;20476;-80
2020/12/10 03:03:07;;;;;;;12.93;6.38;;;;;;;;;;5058201;28;20029;-79
2020/12/10 03:05:32;;;;;;;11.73;5.57;;;;;;;;;;5061120;28;20387;-79
2020/12/10 03:07:58;;;;;;;16.40;7.40;;;;;;;;;;5057529;28;20096;-79
2020/12/10 03:10:23;;;;;;;12.90;5.83;;;;;;;;;;5058704;28;20017;-79
2020/12/10 03:12:48;;;;;;;11.15;5.43;;;;;;;;;;5061018;28;20029;-79
2020/12/10 03:15:13;;;;;;;13.88;6.43;;;;;;;;;;5058341;28;20020;-79
2020/12/10 03:17:38;;;;;;;14.80;6.97;;;;;;;;;;5063577;28;20032;-79
2020/12/10 03:20:04;;;;;;;13.07;5.87;;;;;;;;;;5063135;28;20027;-79
2020/12/10 03:22:29;;;;;;;16.13;7.33;;;;;;;;;;5062112;28;20028;-79
2020/12/10 03:24:54;;;;;;;16.37;6.80;;;;;;;;;;5056534;28;20112;-79
2020/12/10 03:27:19;;;;;;;13.27;6.43;;;;;;;;;;5061676;28;20031;-79
2020/12/10 03:29:45;;;;;;;16.67;6.60;;;;;;;;;;5067683;28;20538;-79
2020/12/10 03:32:10;;;;;;;13.60;6.63;;;;;;;;;;5065557;28;20074;-79
2020/12/10 03:34:35;;;;;;;13.63;6.43;;;;;;;;;;5056205;28;20482;-79
2020/12/10 03:37:01;;;;;;;15.97;7.33;;;;;;;;;;5060576;28;20020;-79
2020/12/10 03:39:26;;;;;;;16.03;7.13;;;;;;;;;;5056504;28;20021;-79
2020/12/10 03:41:52;;;;;;;13.47;6.60;;;;;;;;;;5059486;28;20037;-79
2020/12/10 03:44:18;;;;;;;15.07;6.63;;;;;;;;;;5056612;28;20017;-79
2020/12/10 03:46:43;;;;;;;14.17;6.87;;;;;;;;;;5066484;28;20028;-79
2020/12/10 03:49:09;;;;;;;14.07;6.63;;;;;;;;;;5087650;28;20115;-79
2020/12/10 03:51:34;;;;;;;13.87;6.47;;;;;;;;;;5057197;28;20025;-79
2020/12/10 03:53:59;;;;;;;15.97;6.57;;;;;;;;;;5061019;28;20017;-79
2020/12/10 03:56:25;;;;;;;16.20;7.47;;;;;;;;;;5056882;28;20029;-79
2020/12/10 03:58:50;;;;;;;15.43;7.43;;;;;;;;;;5061762;28;20032;-80
2020/12/10 04:01:15;;;;;;;16.07;6.87;;;;;;;;;;5068325;28;20028;-79
2020/12/10 04:03:40;;;;;;;13.30;7.00;;;;;;;;;;5062332;28;20071;-79
2020/12/10 04:06:06;;;;;;;14.80;6.57;;;;;;;;;;5060741;28;20024;-79
2020/12/10 04:08:31;;;;;;;16.80;7.37;;;;;;;;;;5058385;28;20411;-79
2020/12/10 04:10:56;;;;;;;13.40;6.47;;;;;;;;;;5054163;28;20048;-79
2020/12/10 04:13:21;;;;;;;19.10;7.40;;;;;;;;;;5095833;28;20016;-79
2020/12/10 04:15:47;;;;;;;14.30;6.70;;;;;;;;;;5064272;28;20020;-79
2020/12/10 04:18:12;;;;;;;14.40;6.23;;;;;;;;;;5060469;28;20028;-79
2020/12/10 04:20:37;;;;;;;15.57;6.63;;;;;;;;;;5070553;28;20388;-79
2020/12/10 04:23:02;;;;;;;13.67;6.73;;;;;;;;;;5052223;28;20119;-78
2020/12/10 04:25:27;;;;;;;13.27;5.67;;;;;;;;;;5057823;28;20074;-79
2020/12/10 04:27:52;;;;;;;17.57;6.93;;;;;;;;;;5054090;28;20422;-79
2020/12/10 04:30:21;;;;;;;14.80;6.70;;;;;;;;;;5056654;28;20013;-80
2020/12/10 04:32:46;;;;;;;14.77;6.63;;;;;;;;;;5055159;28;20021;-79
2020/12/10 04:35:11;;;;;;;13.47;6.43;;;;;;;;;;5059209;28;20074;-79
2020/12/10 04:37:37;;;;;;;12.87;6.10;;;;;;;;;;5054846;28;20101;-79
2020/12/10 04:40:03;;;;;;;13.43;5.43;;;;;;;;;;5059504;28;20039;-79
2020/12/10 04:42:28;;;;;;;9.80;5.43;;;;;;;;;;5054414;28;20107;-79
2020/12/10 04:44:53;;;;;;;14.50;6.27;;;;;;;;;;5058675;28;20023;-79
2020/12/10 04:47:18;;;;;;;14.27;7.07;;;;;;;;;;5061427;28;20091;-79
2020/12/10 04:49:44;;;;;;;14.00;6.03;;;;;;;;;;5057299;28;20113;-79
2020/12/10 04:52:10;;;;;;;12.63;6.00;;;;;;;;;;5062351;28;20061;-79
2020/12/10 04:54:35;;;;;;;14.63;6.33;;;;;;;;;;5070626;28;20029;-79
2020/12/10 04:57:02;;;;;;;12.57;5.30;;;;;;;;;;5060435;28;20086;-79
2020/12/10 04:59:27;;;;;;;12.30;5.87;;;;;;;;;;5055703;28;20389;-79
2020/12/10 05:01:54;;;;;;;13.43;6.23;;;;;;;;;;5058797;28;20033;-79
2020/12/10 05:04:21;;;;;;;13.67;5.90;;;;;;;;;;5055443;28;20024;-79
2020/12/10 05:06:50;;;;;;;12.60;5.43;;;;;;;;;;5096898;28;20024;-79
2020/12/10 05:09:15;;;;;;;13.70;5.93;;;;;;;;;;5062302;28;20032;-79
2020/12/10 05:11:41;;;;;;;12.27;5.73;;;;;;;;;;5057317;28;20017;-79
2020/12/10 05:14:06;;;;;;;13.17;6.23;;;;;;;;;;5062252;28;20025;-79
2020/12/10 05:16:31;;;;;;;15.10;7.00;;;;;;;;;;5065361;28;20059;-79
2020/12/10 05:19:15;;;;;;;13.47;6.47;;;;;;;;;;5058486;28;20025;-79
2020/12/10 05:21:40;;;;;;;11.83;5.33;;;;;;;;;;5054469;28;20029;-79
2020/12/10 05:24:26;;;;;;;13.37;6.23;;;;;;;;;;5057039;28;20048;-80
2020/12/10 05:26:51;;;;;;;13.87;6.73;;;;;;;;;;5086269;28;20040;-79
2020/12/10 05:29:32;;;;;;;14.63;6.83;;;;;;;;;;5060583;28;20032;-80
2020/12/10 05:31:57;;;;;;;11.67;5.83;;;;;;;;;;5056751;28;20074;-79
2020/12/10 05:34:24;;;;;;;13.23;6.20;;;;;;;;;;5054559;28;20017;-79
2020/12/10 05:36:50;;;;;;;11.83;5.93;;;;;;;;;;5069221;28;20032;-79
2020/12/10 05:39:15;;;;;;;15.70;6.53;;;;;;;;;;5060350;28;20179;-79
2020/12/10 05:41:42;;;;;;;14.47;6.30;;;;;;;;;;5060682;28;20029;-79
2020/12/10 05:44:14;;;;;;;15.57;6.73;;;;;;;;;;5072963;28;20024;-79
2020/12/10 05:46:39;;;;;;;12.80;6.30;;;;;;;;;;5063674;28;20025;-79
2020/12/10 05:49:04;;;;;;;12.97;6.07;;;;;;;;;;5064297;28;20021;-79
2020/12/10 05:51:40;;;;;;;12.27;6.43;;;;;;;;;;5063636;28;20515;-79
2020/12/10 05:54:08;;;;;;;13.53;5.83;;;;;;;;;;5061054;28;20529;-79
2020/12/10 05:56:38;;;;;;;12.80;5.93;;;;;;;;;;5066304;28;20074;-79
2020/12/10 05:59:05;;;;;;;11.77;5.73;;;;;;;;;;5063276;28;20024;-79
2020/12/10 06:01:32;;;;;;;10.33;4.73;;;;;;;;;;5098916;28;20025;-79
2020/12/10 06:03:57;;;;;;;11.57;5.50;;;;;;;;;;5063806;28;20020;-79
2020/12/10 06:06:25;;;;;;;9.50;5.03;;;;;;;;;;5064224;28;20154;-79
2020/12/10 06:08:51;;;;;;;8.90;4.55;;;;;;;;;;5061365;28;20024;-79
2020/12/10 06:11:17;;;;;;;10.25;4.85;;;;;;;;;;5064987;28;20021;-80
2020/12/10 06:13:42;;;;;;;12.60;5.27;;;;;;;;;;5055164;28;20032;-80
2020/12/10 06:16:17;;;;;;;9.80;5.20;;;;;;;;;;5059966;28;20013;-79
2020/12/10 06:19:01;;;;;;;10.53;5.40;;;;;;;;;;5094393;27;20488;-79
2020/12/10 06:21:33;;;;;;;11.63;4.70;;;;;;;;;;5062508;28;20448;-79
2020/12/10 06:23:58;;;;;;;12.80;6.05;;;;;;;;;;5068467;28;20163;-79
2020/12/10 06:26:23;;;;;;;9.87;5.23;;;;;;;;;;5061032;28;20123;-79
2020/12/10 06:28:48;;;;;;;10.00;5.17;;;;;;;;;;5061337;28;20411;-79
2020/12/10 06:31:14;;;;;;;11.37;5.33;;;;;;;;;;5059432;28;20009;-79
2020/12/10 06:33:40;;;;;;;10.97;5.00;;;;;;;;;;5068369;28;20020;-79
2020/12/10 06:36:23;;;;;;;11.57;6.07;;;;;;;;;;5067804;28;20051;-79
2020/12/10 06:38:49;;;;;;;16.43;5.93;;;;;;;;;;5055745;28;20111;-79
2020/12/10 06:41:14;;;;;;;11.80;5.63;;;;;;;;;;5058045;28;20136;-80
2020/12/10 06:43:39;;;;;;;11.93;5.50;;;;;;;;;;5068427;28;20491;-79
2020/12/10 06:46:05;;;;;;;9.40;4.90;;;;;;;;;;5061222;28;20055;-79
2020/12/10 06:48:49;;;;;;;12.33;5.50;;;;;;;;;;5062042;28;20378;-79
2020/12/10 06:51:18;;;;;;;11.77;5.90;;;;;;;;;;5088843;28;20083;-79
2020/12/10 06:53:58;;;;;;;9.30;4.70;;;;;;;;;;5060736;28;20461;-80
2020/12/10 06:56:24;;;;;;;10.43;4.82;;;;;;;;;;5057645;28;20112;-79
2020/12/10 06:58:51;;;;;;;20.10;6.28;;;;;;;;;;5097636;28;20060;-80
2020/12/10 07:01:26;;;;;;;12.13;6.07;;;;;;;;;;5064880;28;20029;-79
2020/12/10 07:04:08;;;;;;;10.18;5.22;;;;;;;;;;5062044;28;20033;-79
2020/12/10 07:06:34;;;;;;;11.95;5.28;;;;;;;;;;5076467;28;20533;-79
2020/12/10 07:09:00;;;;;;;12.90;5.83;;;;;;;;;;5068020;28;20024;-79
2020/12/10 07:11:32;;;;;;;13.10;6.27;;;;;;;;;;5059106;28;20348;-79
2020/12/10 07:13:57;;;;;;;15.85;6.18;;;;;;;;;;5061800;28;20422;-79
2020/12/10 07:16:32;;;;;;;17.43;6.83;;;;;;;;;;5060913;28;20025;-79
2020/12/10 07:18:58;;;;;;;11.37;5.70;;;;;;;;;;5058112;28;20017;-79
2020/12/10 07:21:23;;;;;;;12.97;6.00;;;;;;;;;;5057121;28;20372;-79
2020/12/10 07:23:49;;;;;;;12.07;6.17;;;;;;;;;;5062903;28;20021;-79
2020/12/10 07:26:15;;;;;;;13.63;6.10;;;;;;;;;;5063454;28;20013;-79
2020/12/10 07:28:40;;;;;;;12.70;5.33;;;;;;;;;;5056715;28;20032;-79
2020/12/10 07:31:11;;;;;;;12.73;6.23;;;;;;;;;;5068293;28;20020;-79
2020/12/10 07:33:37;;;;;;;11.20;5.75;;;;;;;;;;5063214;28;20020;-79
2020/12/10 07:36:06;;;;;;;12.83;6.17;;;;;;;;;;5077461;28;20024;-79
2020/12/10 07:38:32;;;;;;;13.77;6.20;;;;;;;;;;5060619;28;20115;-79
2020/12/10 07:40:57;;;;;;;11.60;5.60;;;;;;;;;;5060392;28;20113;-79
2020/12/10 07:43:25;;;;;;;14.53;6.07;;;;;;;;;;5056323;28;20110;-79
2020/12/10 07:45:51;;;;;;;11.73;5.43;;;;;;;;;;5067990;28;20040;-79
2020/12/10 07:48:16;;;;;;;14.60;6.50;;;;;;;;;;5053769;28;20018;-79
2020/12/10 07:50:44;;;;;;;13.23;5.80;;;;;;;;;;5061316;28;20431;-79
2020/12/10 07:53:09;;;;;;;11.43;5.83;;;;;;;;;;5053906;28;20021;-79
2020/12/10 07:55:36;;;;;;;12.33;5.93;;;;;;;;;;5059725;28;20034;-79
2020/12/10 07:58:10;;;;;;;13.80;6.60;;;;;;;;;;5055173;28;20025;-79
2020/12/10 08:00:36;;;;;;;13.70;6.57;;;;;;;;;;5071091;28;20025;-79
2020/12/10 08:03:13;;;;;;;12.60;6.03;;;;;;;;;;5061277;28;20094;-79
2020/12/10 08:05:39;;;;;;;12.17;5.47;;;;;;;;;;5056739;28;20020;-79
2020/12/10 08:08:04;;;;;;;11.63;5.87;;;;;;;;;;5063782;28;20032;-79
2020/12/10 08:10:32;;;;;;;12.53;6.27;;;;;;;;;;5063692;28;20017;-79
2020/12/10 08:13:10;;;;;;;11.87;5.67;;;;;;;;;;5062330;28;20745;-79
2020/12/10 08:15:35;;;;;;;15.57;6.43;;;;;;;;;;5060336;28;20029;-79
2020/12/10 08:18:04;;;;;;;15.60;6.23;;;;;;;;;;5066781;28;20025;-79
2020/12/10 08:20:36;;;;;;;12.53;5.53;;;;;;;;;;5071497;28;20047;-79
2020/12/10 08:23:02;;;;;;;12.95;5.95;;;;;;;;;;5058461;28;20075;-79
2020/12/10 08:25:27;;;;;;;13.00;5.07;;;;;;;;;;5065322;28;20476;-79
2020/12/10 08:27:52;;;;;;;17.37;6.20;;;;;;;;;;5090561;28;20021;-79
2020/12/10 08:30:17;;;;;;;15.87;5.70;;;;;;;;;;5060772;28;20017;-79
2020/12/10 08:32:53;;;;;;;13.90;6.10;;;;;;;;;;5061879;28;20365;-79
2020/12/10 08:35:19;;;;;;;15.07;6.20;;;;;;;;;;5061969;28;20028;-79
2020/12/10 08:37:44;;;;;;;14.90;6.77;;;;;;;;;;5060644;28;20021;-79
2020/12/10 08:40:10;;;;;;;15.87;6.63;;;;;;;;;;5061077;28;20028;-79
2020/12/10 08:42:35;;;;;;;14.17;6.43;;;;;;;;;;5066070;28;20029;-79
2020/12/10 08:45:00;;;;;;;14.73;6.57;;;;;;;;;;5063714;28;20036;-79
2020/12/10 08:47:26;;;;;;;15.03;6.33;;;;;;;;;;5062821;28;20021;-79
2020/12/10 08:50:24;;;;;;;12.07;6.30;;;;;;;;;;5064487;28;20372;-79
2020/12/10 08:52:50;;;;;;;13.93;5.93;;;;;;;;;;5065389;28;20281;-80
2020/12/10 08:55:15;;;;;;;14.27;6.17;;;;;;;;;;5060046;28;20032;-79
2020/12/10 08:57:50;;;;;;;12.83;6.20;;;;;;;;;;5065432;28;20029;-79
2020/12/10 09:00:15;;;;;;;10.77;5.27;;;;;;;;;;5069226;28;20111;-79
2020/12/10 09:02:41;;;;;;;13.37;5.67;;;;;;;;;;5058416;28;20114;-84
2020/12/10 09:05:06;;;;;;;13.30;6.63;;;;;;;;;;5057595;28;20502;-81
2020/12/10 09:07:32;;;;;;;13.03;6.60;;;;;;;;;;5064502;28;20025;-80
2020/12/10 09:09:58;;;;;;;15.80;7.20;;;;;;;;;;5069021;28;20023;-81
2020/12/10 09:12:23;;;;;;;15.47;6.60;;;;;;;;;;5054097;28;20020;-83
2020/12/10 09:14:48;;;;;;;19.43;6.20;;;;;;;;;;5054782;28;20102;-80
2020/12/10 09:17:13;;;;;;;17.30;7.57;;;;;;;;;;5060076;28;20056;-82
2020/12/10 09:19:38;;;;;;;18.03;6.63;;;;;;;;;;5072506;28;20028;-82
2020/12/10 09:22:04;;;;;;;15.83;6.73;;;;;;;;;;5069010;28;20031;-82
2020/12/10 09:24:29;;;;;;;14.60;6.90;;;;;;;;;;5068975;28;20082;-82
2020/12/10 09:26:54;;;;;;;16.00;6.97;;;;;;;;;;5074582;28;20039;-82
2020/12/10 09:29:19;;;;;;;17.90;7.03;;;;;;;;;;5067822;28;20468;-82
2020/12/10 09:31:44;;;;;;;20.03;6.93;;;;;;;;;;5067028;28;20124;-82
2020/12/10 09:34:10;;;;;;;16.50;7.50;;;;;;;;;;5071063;28;20029;-82
2020/12/10 09:36:35;;;;;;;15.37;6.90;;;;;;;;;;5072539;28;20484;-82
2020/12/10 09:39:00;;;;;;;15.27;6.93;;;;;;;;;;5062110;28;20029;-85
2020/12/10 09:41:25;;;;;;;16.48;7.13;;;;;;;;;;5065704;28;20028;-85
2020/12/10 09:43:50;;;;;;;17.40;7.63;;;;;;;;;;5065212;28;20037;-85
2020/12/10 09:46:16;;;;;;;16.73;7.30;;;;;;;;;;5065530;28;20115;-85
2020/12/10 09:48:41;;;;;;;16.37;6.43;;;;;;;;;;5093216;28;20115;-85
2020/12/10 09:51:07;;;;;;;15.07;6.82;;;;;;;;;;5090029;28;20020;-85
2020/12/10 09:53:42;;;;;;;17.42;7.00;;;;;;;;;;5096005;28;20029;-84
2020/12/10 09:56:35;;;;;;;16.17;6.78;;;;;;;;;;5071589;28;20459;-86
2020/12/10 09:59:00;;;;;;;16.05;6.40;;;;;;;;;;5067232;28;20384;-85
2020/12/10 10:01:26;;;;;;;19.58;7.78;;;;;;;;;;5064395;28;20025;-85
2020/12/10 10:03:51;;;;;;;15.43;7.47;;;;;;;;;;5069451;28;20066;-84
2020/12/10 10:06:16;;;;;;;18.58;7.53;;;;;;;;;;5068461;28;20520;-84
2020/12/10 10:08:41;;;;;;;15.52;6.45;;;;;;;;;;5066323;28;20036;-85
2020/12/10 10:11:06;;;;;;;14.80;7.40;;;;;;;;;;5069744;28;20360;-85
2020/12/10 10:13:32;;;;;;;14.75;7.60;;;;;;;;;;5072159;28;20051;-85
2020/12/10 10:15:57;;;;;;;17.80;8.80;;;;;;;;;;5064372;28;20020;-85
2020/12/10 10:18:23;;;;;;;14.77;7.22;;;;;;;;;;5066131;28;20107;-82
2020/12/10 10:20:48;;;;;;;17.48;8.35;;;;;;;;;;5068802;28;20540;-82
2020/12/10 10:23:13;;;;;;;18.55;7.00;;;;;;;;;;5065946;28;20111;-80
2020/12/10 10:25:38;;;;;;;17.90;7.97;;;;;;;;;;5063439;28;20020;-81
2020/12/10 10:28:04;;;;;;;16.33;7.32;;;;;;;;;;5066233;28;20107;-80
2020/12/10 10:30:29;;;;;;;17.17;7.38;;;;;;;;;;5060493;28;20017;-79
2020/12/10 10:32:55;;;;;;;21.65;7.60;;;;;;;;;;5062909;28;20024;-80
2020/12/10 10:35:21;;;;;;;17.63;8.05;;;;;;;;;;5067025;28;20016;-80
2020/12/10 10:37:47;;;;;;;20.90;8.68;;;;;;;;;;5055439;28;20381;-80
2020/12/10 10:40:12;;;;;;;19.95;9.00;;;;;;;;;;5066238;28;20027;-80
2020/12/10 10:42:37;;;;;;;20.40;9.20;;;;;;;;;;5061014;28;20032;-80
2020/12/10 10:45:03;;;;;;;19.58;10.82;;;;;;;;;;5061426;28;20081;-80
2020/12/10 10:47:29;;;;;;;16.77;7.88;;;;;;;;;;5065535;28;20020;-79
2020/12/10 10:49:54;;;;;;;22.95;8.88;;;;;;;;;;5060319;28;20088;-79
2020/12/10 10:52:20;;;;;;;19.85;9.23;;;;;;;;;;5065851;28;20136;-80
2020/12/10 10:54:45;;;;;;;22.27;9.33;;;;;;;;;;5064131;28;20024;-80
2020/12/10 10:57:11;;;;;;;15.60;7.30;;;;;;;;;;5061790;28;20017;-80
2020/12/10 10:59:36;;;;;;;19.58;8.52;;;;;;;;;;5059476;28;20063;-80
2020/12/10 11:02:02;;;;;;;21.17;8.80;;;;;;;;;;5063227;28;20013;-79
2020/12/10 11:04:27;;;;;;;19.08;7.90;;;;;;;;;;5058492;28;20025;-80
2020/12/10 11:06:52;;;;;;;17.80;8.40;;;;;;;;;;5070032;28;20023;-80
2020/12/10 11:09:17;;;;;;;25.13;8.73;;;;;;;;;;5060594;28;20066;-79
2020/12/10 11:11:43;;;;;;;20.58;7.97;;;;;;;;;;5069118;28;20667;-80
2020/12/10 11:14:08;;;;;;;19.43;9.37;;;;;;;;;;5076635;28;20020;-80
2020/12/10 11:16:33;;;;;;;20.20;8.73;;;;;;;;;;5057902;28;20676;-80
2020/12/10 11:18:59;;;;;;;20.30;9.07;;;;;;;;;;5068128;28;20036;-80
2020/12/10 11:21:27;;;;;;;27.33;10.80;;;;;;;;;;5063363;28;20115;-80
2020/12/10 11:23:53;;;;;;;18.87;7.87;;;;;;;;;;5063674;28;20699;-80
2020/12/10 11:26:18;;;;;;;18.08;8.70;;;;;;;;;;5060354;28;20025;-80
2020/12/10 11:28:43;;;;;;;19.73;7.85;;;;;;;;;;5061405;28;20021;-80
2020/12/10 11:31:08;;;;;;;20.52;8.25;;;;;;;;;;5062630;28;20012;-80
2020/12/10 11:33:36;;;;;;;21.08;8.63;;;;;;;;;;5060470;28;20025;-80
2020/12/10 11:36:01;;;;;;;14.60;6.63;;;;;;;;;;5066196;28;20464;-80
2020/12/10 11:38:26;;;;;;;17.27;7.30;;;;;;;;;;5064227;28;20032;-80
2020/12/10 11:40:51;;;;;;;23.48;9.57;;;;;;;;;;5071814;28;20364;-80
2020/12/10 11:43:17;;;;;;;20.25;8.80;;;;;;;;;;5056437;28;20090;-80
2020/12/10 11:45:43;;;;;;;23.73;9.40;;;;;;;;;;5070827;28;20016;-80
2020/12/10 11:48:08;;;;;;;18.83;8.67;;;;;;;;;;5072272;28;21689;-80
2020/12/10 11:50:34;;;;;;;22.33;9.27;;;;;;;;;;5070563;28;20008;-80
2020/12/10 11:52:59;;;;;;;21.03;10.30;;;;;;;;;;5065678;28;20094;-80
2020/12/10 11:55:24;;;;;;;20.80;9.63;;;;;;;;;;5071346;28;20013;-80
2020/12/10 11:57:50;;;;;;;17.83;7.33;;;;;;;;;;5056916;28;20037;-80
2020/12/10 12:00:15;;;;;;;22.42;8.55;;;;;;;;;;5096676;27;20086;-80
2020/12/10 12:02:41;;;;;;;16.77;7.72;;;;;;;;;;5064452;28;20028;-80
2020/12/10 12:05:07;;;;;;;14.85;7.25;;;;;;;;;;5061212;28;20028;-80
2020/12/10 12:07:32;;;;;;;15.77;7.95;;;;;;;;;;5103121;28;20024;-80
2020/12/10 12:09:57;;;;;;;17.38;7.90;;;;;;;;;;5072113;28;20028;-80
2020/12/10 12:12:22;;;;;;;29.23;8.75;;;;;;;;;;5059648;28;20012;-80
2020/12/10 12:14:48;;;;;;;19.00;7.47;;;;;;;;;;5071809;28;20020;-80
2020/12/10 12:17:13;;;;;;;18.42;8.05;;;;;;;;;;5063821;28;20358;-80
2020/12/10 12:19:38;;;;;;;21.88;8.95;;;;;;;;;;5064077;28;20060;-80
2020/12/10 12:22:03;;;;;;;18.50;9.10;;;;;;;;;;5073164;28;20095;-80
2020/12/10 12:24:29;;;;;;;25.83;8.35;;;;;;;;;;5058887;28;20474;-80
2020/12/10 12:26:54;;;;;;;21.67;8.80;;;;;;;;;;5068357;28;20016;-80
2020/12/10 12:29:19;;;;;;;18.58;8.43;;;;;;;;;;5065448;28;20028;-80
2020/12/10 12:31:44;;;;;;;21.55;10.23;;;;;;;;;;5064900;28;20016;-79
2020/12/10 12:34:10;;;;;;;22.83;9.55;;;;;;;;;;5060659;28;20029;-80
2020/12/10 12:36:35;;;;;;;17.90;9.40;;;;;;;;;;5064387;28;20029;-80
2020/12/10 12:39:00;;;;;;;21.25;8.57;;;;;;;;;;5055846;28;20079;-80
2020/12/10 12:41:26;;;;;;;21.50;9.98;;;;;;;;;;5058459;28;20181;-80
2020/12/10 12:43:51;;;;;;;24.30;9.73;;;;;;;;;;5062276;28;20376;-80
2020/12/10 12:46:17;;;;;;;33.42;10.38;;;;;;;;;;5062864;28;20052;-80
2020/12/10 12:48:42;;;;;;;21.80;9.65;;;;;;;;;;5067458;28;20056;-80
2020/12/10 12:51:07;;;;;;;19.55;8.38;;;;;;;;;;5065448;28;20071;-80
2020/12/10 12:53:32;;;;;;;20.25;9.30;;;;;;;;;;5061596;28;20023;-80
2020/12/10 12:55:57;;;;;;;18.00;7.63;;;;;;;;;;5069788;28;20071;-80
2020/12/10 12:58:23;;;;;;;17.75;7.88;;;;;;;;;;5066502;28;20024;-79
2020/12/10 13:00:48;;;;;;;18.35;7.68;;;;;;;;;;5063183;28;20104;-80
2020/12/10 13:03:13;;;;;;;18.40;8.73;;;;;;;;;;5063142;28;20707;-80
2020/12/10 13:05:38;;;;;;;27.15;10.38;;;;;;;;;;5073273;28;20055;-80
2020/12/10 13:08:04;;;;;;;21.70;9.05;;;;;;;;;;5068925;28;20047;-80
2020/12/10 13:10:29;;;;;;;17.98;8.20;;;;;;;;;;5069024;28;20023;-80
2020/12/10 13:12:54;;;;;;;17.35;8.27;;;;;;;;;;5080585;28;20371;-80
2020/12/10 13:15:22;;;;;;;22.15;9.15;;;;;;;;;;5067100;28;20025;-80
2020/12/10 13:17:47;;;;;;;18.77;8.40;;;;;;;;;;5069180;28;20040;-80
2020/12/10 13:20:13;;;;;;;18.88;8.60;;;;;;;;;;5070060;28;20021;-80
2020/12/10 13:22:38;;;;;;;16.33;8.15;;;;;;;;;;5061573;28;20027;-80
2020/12/10 13:25:03;;;;;;;21.88;9.55;;;;;;;;;;5079304;28;20048;-80
2020/12/10 13:27:29;;;;;;;24.17;9.95;;;;;;;;;;5065164;28;20021;-80
2020/12/10 13:29:54;;;;;;;22.73;10.40;;;;;;;;;;5107867;27;20016;-80
2020/12/10 13:32:22;;;;;;;18.02;8.40;;;;;;;;;;5068123;28;20021;-80
2020/12/10 13:34:48;;;;;;;19.90;8.52;;;;;;;;;;5057704;28;20048;-80
2020/12/10 13:37:16;;;;;;;16.67;7.10;;;;;;;;;;5067472;28;20067;-80
2020/12/10 13:39:41;;;;;;;23.00;9.57;;;;;;;;;;5067302;28;20040;-80
2020/12/10 13:42:07;;;;;;;19.92;8.80;;;;;;;;;;5059644;28;20024;-80
2020/12/10 13:44:32;;;;;;;19.85;9.13;;;;;;;;;;5066584;28;20032;-80
2020/12/10 13:46:57;;;;;;;22.50;8.93;;;;;;;;;;5070370;28;20364;-80
2020/12/10 13:49:24;;;;;;;20.00;8.82;;;;;;;;;;5067127;28;20087;-80
2020/12/10 13:51:50;;;;;;;24.05;9.75;;;;;;;;;;5060057;28;20044;-79
2020/12/10 13:54:15;;;;;;;19.17;9.65;;;;;;;;;;5074136;28;20028;-80
2020/12/10 13:56:40;;;;;;;21.83;9.77;;;;;;;;;;5059430;28;20024;-80
2020/12/10 13:59:06;;;;;;;20.02;10.15;;;;;;;;;;5060224;28;20025;-80
2020/12/10 14:01:33;;;;;;;19.52;8.35;;;;;;;;;;5068917;28;20025;-79
2020/12/10 14:03:58;;;;;;;22.85;9.68;;;;;;;;;;5062937;28;20012;-80
2020/12/10 14:06:23;;;;;;;24.38;10.45;;;;;;;;;;5060576;28;20028;-80
2020/12/10 14:08:49;;;;;;;27.58;10.50;;;;;;;;;;5064786;28;20021;-80
2020/12/10 14:11:20;;;;;;;17.85;7.97;;;;;;;;;;5062048;28;20051;-79
2020/12/10 14:13:45;;;;;;;22.33;10.43;;;;;;;;;;5059127;28;20100;-79
2020/12/10 14:16:11;;;;;;;20.65;9.82;;;;;;;;;;5070741;28;20096;-80
2020/12/10 14:18:36;;;;;;;19.60;9.40;;;;;;;;;;5060695;28;20024;-79
2020/12/10 14:21:01;;;;;;;16.52;8.15;;;;;;;;;;5061509;28;20365;-80
2020/12/10 14:23:27;;;;;;;21.38;9.25;;;;;;;;;;5058416;28;20025;-80
2020/12/10 14:25:52;;;;;;;18.63;9.38;;;;;;;;;;5060401;28;20112;-79